Time;durP1;ratioP1;P1;durP2;ratioP2;P2;SDS_P1;SDS_P2;PMS_P1;PMS_P2;Temp;Humidity;BMP_temperature;BMP_pressure;BME280_temperature;BME280_humidity;BME280_pressure;Samples;Min_cycle;Max_cycle;Signal;HPM_P1;HPM_P2
2021/01/17 00:02:16;;;;;;;46.67;34.97;;;0.20;72.80;1.70;66628.00;;;;5078315;28;20945;-76
2021/01/17 00:04:44;;;;;;;47.80;35.95;;;0.20;73.30;217.30;157343.00;;;;5079186;28;20473;-75
2021/01/17 00:07:11;;;;;;;47.60;35.10;;;0.20;72.90;1.60;66628.00;;;;5075583;28;20764;-74
2021/01/17 00:09:39;;;;;;;49.25;35.92;;;0.20;72.60;1.60;66615.00;;;;5075592;28;20419;-73
2021/01/17 00:12:10;;;;;;;48.15;35.88;;;0.20;72.60;1.70;66632.00;;;;5077533;28;20544;-74
2021/01/17 00:14:37;;;;;;;44.97;33.83;;;0.20;73.00;1.90;66672.00;;;;5079564;28;20439;-74
2021/01/17 00:17:05;;;;;;;46.97;34.10;;;0.40;74.10;217.30;157483.00;;;;5080463;28;20506;-77
2021/01/17 00:19:32;;;;;;;44.75;33.55;;;0.50;73.30;1.90;66674.00;;;;5085557;28;20414;-75
2021/01/17 00:22:00;;;;;;;44.83;33.95;;;0.40;72.00;1.80;66643.00;;;;5080320;28;20427;-76
2021/01/17 00:24:27;;;;;;;44.38;33.42;;;0.40;71.50;1.80;66640.00;;;;5091928;28;20499;-74
2021/01/17 00:26:55;;;;;;;46.10;34.72;;;0.30;72.10;1.80;66647.00;;;;5079264;28;20426;-76
2021/01/17 00:29:23;;;;;;;43.92;33.33;;;0.30;72.00;217.30;157473.00;;;;5064712;28;20855;-76
2021/01/17 00:31:51;;;;;;;48.92;35.15;;;0.30;72.60;2.00;66687.00;;;;5078825;28;20507;-77
2021/01/17 00:34:18;;;;;;;46.73;35.23;;;0.40;72.80;52.70;157489.00;;;;5079198;28;20522;-77
2021/01/17 00:36:46;;;;;;;47.07;34.67;;;0.50;72.20;217.30;157444.00;;;;5069637;28;20482;-77
2021/01/17 00:39:14;;;;;;;45.25;35.15;;;0.30;71.90;1.80;66648.00;;;;5080770;28;20759;-77
2021/01/17 00:41:41;;;;;;;49.13;36.80;;;0.30;72.00;217.30;157438.00;;;;5080271;28;20843;-79
2021/01/17 00:44:09;;;;;;;46.97;35.03;;;0.30;72.50;1.60;66648.00;;;;5100604;28;20445;-77
2021/01/17 00:46:39;;;;;;;46.97;36.97;;;0.30;72.50;217.30;157463.00;;;;5079454;28;20421;-77
2021/01/17 00:49:08;;;;;;;47.10;36.00;;;0.30;73.00;217.30;157434.00;;;;5067403;28;20970;-78
2021/01/17 00:51:42;;;;;;;47.63;34.85;;;0.40;73.30;2.10;66659.00;;;;5079769;28;20439;-76
2021/01/17 00:54:11;;;;;;;48.00;35.75;;;0.50;73.20;52.70;157469.00;;;;5082846;28;20491;-77
2021/01/17 00:56:39;;;;;;;47.67;36.22;;;0.50;72.60;1.90;66674.00;;;;5092926;28;20418;-76
2021/01/17 00:59:11;;;;;;;45.92;35.22;;;0.40;72.50;1.90;66674.00;;;;5076656;28;20461;-76
2021/01/17 01:01:42;;;;;;;49.92;36.33;;;0.40;72.90;1.90;66674.00;;;;5058575;28;20426;-77
2021/01/17 01:04:12;;;;;;;46.20;35.08;;;0.40;73.50;2.00;66672.00;;;;5071578;28;20483;-77
2021/01/17 01:06:40;;;;;;;48.20;36.93;;;0.50;73.20;217.30;157489.00;;;;5073804;28;20491;-76
2021/01/17 01:09:09;;;;;;;50.35;36.85;;;0.40;73.20;2.00;100616.00;;;;5079926;28;20425;-77
2021/01/17 01:11:37;;;;;;;50.17;37.25;;;0.60;73.70;2.00;100620.00;;;;5094707;28;20411;-77
2021/01/17 01:14:05;;;;;;;49.20;35.90;;;0.50;73.30;2.00;100615.00;;;;5075216;28;20431;-77
2021/01/17 01:16:34;;;;;;;49.58;37.08;;;0.40;73.20;1.80;100616.00;;;;5063669;28;20776;-76
2021/01/17 01:19:03;;;;;;;51.35;37.30;;;0.30;73.20;1.80;100612.00;;;;5077552;28;20431;-74
2021/01/17 01:21:33;;;;;;;49.63;37.50;;;0.30;73.20;1.70;100608.00;;;;5069174;28;20524;-74
2021/01/17 01:24:01;;;;;;;52.42;37.90;;;0.20;73.30;1.70;100593.00;;;;5064777;28;20441;-73
2021/01/17 01:26:36;;;;;;;54.27;39.00;;;0.20;73.80;1.50;100605.00;;;;5087357;28;20430;-73
2021/01/17 01:29:05;;;;;;;53.05;39.20;;;0.20;74.10;1.60;100582.00;;;;5078593;28;20855;-74
2021/01/17 01:31:34;;;;;;;51.25;36.30;;;0.20;75.30;1.60;100580.00;;;;5075354;28;20454;-74
2021/01/17 01:34:03;;;;;;;52.13;36.95;;;0.20;74.60;1.70;100579.00;;;;5073808;28;20431;-74
2021/01/17 01:36:34;;;;;;;55.25;37.40;;;0.20;74.50;1.70;100574.00;;;;5074017;28;20408;-74
2021/01/17 01:39:02;;;;;;;52.25;37.20;;;0.20;74.60;1.80;100565.00;;;;5084765;28;20414;-73
2021/01/17 01:41:31;;;;;;;51.15;37.65;;;0.20;75.10;1.80;100550.00;;;;5091278;28;20430;-74
2021/01/17 01:43:59;;;;;;;50.88;37.03;;;0.30;74.70;1.80;100566.00;;;;5083197;28;20449;-76
2021/01/17 01:46:29;;;;;;;52.35;36.60;;;0.30;74.70;1.80;100572.00;;;;5074441;28;20450;-75
2021/01/17 01:49:01;;;;;;;53.03;37.83;;;0.30;75.10;1.80;100560.00;;;;5087368;28;20422;-74
2021/01/17 01:51:28;;;;;;;51.80;36.53;;;0.20;74.40;1.70;100557.00;;;;5072163;28;20504;-74
2021/01/17 01:53:57;;;;;;;54.10;37.40;;;0.20;75.00;1.70;100559.00;;;;5089817;28;20860;-74
2021/01/17 01:56:25;;;;;;;48.60;35.13;;;0.20;74.60;1.60;100555.00;;;;5074486;28;20851;-75
2021/01/17 01:58:54;;;;;;;51.83;35.88;;;0.20;74.10;1.70;100549.00;;;;5074997;28;20441;-74
2021/01/17 02:01:23;;;;;;;53.40;37.13;;;0.20;74.60;1.80;100570.00;;;;5074442;28;20772;-74
2021/01/17 02:03:52;;;;;;;52.50;37.50;;;0.20;74.70;1.70;100544.00;;;;5082085;28;20424;-71
2021/01/17 02:06:22;;;;;;;54.00;37.67;;;0.30;74.60;1.70;100568.00;;;;5090298;28;20438;-71
2021/01/17 02:09:23;;;;;;;49.67;36.28;;;0.20;74.20;1.80;100546.00;;;;5085859;28;20429;-72
2021/01/17 02:12:09;;;;;;;49.10;36.20;;;0.20;74.50;1.80;100543.00;;;;5069067;28;20445;-71
2021/01/17 02:14:52;;;;;;;47.65;35.45;;;0.20;74.40;1.70;100527.00;;;;5093580;28;20411;-71
2021/01/17 02:17:21;;;;;;;50.70;35.87;;;0.20;74.00;1.70;100528.00;;;;5107254;28;20489;-71
2021/01/17 02:20:08;;;;;;;48.50;35.20;;;0.20;74.10;1.80;100522.00;;;;5100759;28;20448;-75
2021/01/17 02:22:47;;;;;;;46.03;34.85;;;0.20;74.10;1.70;100536.00;;;;5077971;28;20950;-75
2021/01/17 02:25:16;;;;;;;47.55;34.38;;;0.20;73.70;1.80;100536.00;;;;5075095;28;20475;-73
2021/01/17 02:27:47;;;;;;;45.65;34.83;;;0.20;73.80;1.70;100524.00;;;;5068586;28;20397;-72
2021/01/17 02:30:17;;;;;;;47.47;34.70;;;0.20;73.70;1.80;100524.00;;;;5086893;28;20443;-72
2021/01/17 02:32:49;;;;;;;44.83;33.60;;;0.20;74.00;1.80;100519.00;;;;5091897;28;20449;-73
2021/01/17 02:35:18;;;;;;;47.20;35.17;;;0.20;74.10;217.30;157418.00;;;;5107381;28;20467;-73
2021/01/17 02:37:59;;;;;;;48.30;35.70;;;0.20;73.80;1.80;100529.00;;;;5074376;28;20456;-73
2021/01/17 02:40:43;;;;;;;46.50;35.13;;;0.20;74.00;1.80;100525.00;;;;5079547;28;20511;-73
2021/01/17 02:43:11;;;;;;;47.13;35.45;;;0.20;73.90;1.90;100530.00;;;;5074186;28;20428;-73
2021/01/17 02:45:38;;;;;;;45.15;33.25;;;0.30;73.80;1.90;100522.00;;;;5075790;28;20449;-73
2021/01/17 02:48:08;;;;;;;47.15;34.05;;;0.30;73.50;1.90;100509.00;;;;5096456;28;20508;-74
2021/01/17 02:50:35;;;;;;;45.88;34.40;;;0.30;73.50;1.90;100515.00;;;;5075180;28;20408;-75
2021/01/17 02:53:09;;;;;;;45.20;33.60;;;0.30;73.70;1.90;100508.00;;;;5071910;28;20836;-74
2021/01/17 02:55:39;;;;;;;44.92;33.15;;;0.30;73.30;1.90;100525.00;;;;5054670;28;20421;-75
2021/01/17 02:58:10;;;;;;;44.80;33.65;;;0.30;73.50;1.80;100522.00;;;;5071905;28;20430;-75
2021/01/17 03:00:40;;;;;;;42.88;33.15;;;0.30;73.30;1.80;100512.00;;;;5072289;28;20502;-75
2021/01/17 03:03:10;;;;;;;44.30;33.70;;;0.20;73.20;1.80;100518.00;;;;5073938;28;20427;-74
2021/01/17 03:05:40;;;;;;;45.35;34.15;;;0.20;73.20;1.80;100518.00;;;;5074762;28;20483;-75
2021/01/17 03:08:08;;;;;;;44.92;32.60;;;0.20;73.40;1.80;100514.00;;;;5073438;28;21311;-75
2021/01/17 03:10:37;;;;;;;44.38;33.60;;;0.20;73.50;1.80;100518.00;;;;5082879;28;20469;-75
2021/01/17 03:13:05;;;;;;;44.00;32.50;;;0.20;73.60;1.90;100521.00;;;;5070629;28;20986;-75
2021/01/17 03:15:34;;;;;;;45.90;32.40;;;0.30;73.70;1.90;100506.00;;;;5066674;28;20457;-74
2021/01/17 03:18:02;;;;;;;44.20;33.15;;;0.30;73.60;1.90;100506.00;;;;5063497;28;20506;-74
2021/01/17 03:20:29;;;;;;;44.63;33.25;;;0.30;73.00;1.90;66662.00;;;;5071588;28;20514;-74
2021/01/17 03:22:57;;;;;;;42.50;31.92;;;0.30;73.10;217.30;157463.00;;;;5072690;28;20490;-74
2021/01/17 03:25:24;;;;;;;45.78;32.90;;;0.30;73.20;1.90;100517.00;;;;5072900;28;20414;-75
2021/01/17 03:27:53;;;;;;;40.95;31.02;;;0.30;73.20;1.80;100512.00;;;;5071161;28;20416;-75
2021/01/17 03:30:21;;;;;;;42.00;30.95;;;0.30;72.90;1.80;100527.00;;;;5072632;28;20494;-76
2021/01/17 03:32:49;;;;;;;41.47;32.33;;;0.30;72.50;1.90;100522.00;;;;5071772;28;20416;-74
2021/01/17 03:35:17;;;;;;;44.08;32.70;;;0.30;73.50;1.90;100513.00;;;;5075122;28;20424;-75
2021/01/17 03:37:44;;;;;;;41.43;32.37;;;0.30;72.70;1.90;100505.00;;;;5061439;28;20432;-75
2021/01/17 03:40:13;;;;;;;43.78;32.85;;;0.30;72.70;1.80;100512.00;;;;5078553;28;20427;-75
2021/01/17 03:42:40;;;;;;;44.20;32.22;;;0.30;73.10;1.90;100507.00;;;;5068317;28;20447;-75
2021/01/17 03:45:11;;;;;;;44.78;32.90;;;0.30;73.10;1.90;100515.00;;;;5070887;28;20523;-75
2021/01/17 03:47:38;;;;;;;42.90;32.42;;;0.30;72.90;2.00;100510.00;;;;5070172;28;20853;-73
2021/01/17 03:50:07;;;;;;;45.45;33.40;;;0.30;73.10;2.10;100515.00;;;;5069381;28;20415;-75
2021/01/17 03:52:34;;;;;;;44.65;33.72;;;0.40;73.20;2.00;100483.00;;;;5073024;28;20419;-72
2021/01/17 03:55:01;;;;;;;46.20;32.75;;;0.40;72.80;2.00;100499.00;;;;5068821;28;21100;-73
2021/01/17 03:57:29;;;;;;;45.63;34.03;;;0.40;72.90;52.70;157428.00;;;;5081292;28;20516;-73
2021/01/17 03:59:56;;;;;;;45.00;33.60;;;0.40;72.70;1.80;100514.00;;;;5062763;28;20481;-73
2021/01/17 04:02:24;;;;;;;46.10;33.85;;;0.30;72.70;1.80;100500.00;;;;5070366;28;20499;-73
2021/01/17 04:04:52;;;;;;;46.47;33.90;;;0.30;73.30;1.80;100497.00;;;;5057456;28;20416;-75
2021/01/17 04:07:19;;;;;;;46.47;34.60;;;0.30;73.00;1.70;100513.00;;;;5075972;28;20418;-73
2021/01/17 04:09:47;;;;;;;49.15;36.55;;;0.30;73.20;1.70;100514.00;;;;5074489;28;20418;-73
2021/01/17 04:12:14;;;;;;;48.22;35.80;;;0.30;73.30;1.60;100527.00;;;;5069737;28;20423;-75
2021/01/17 04:14:41;;;;;;;48.47;35.92;;;0.30;73.40;1.60;100524.00;;;;5075124;28;20412;-72
2021/01/17 04:17:09;;;;;;;49.33;35.63;;;0.20;73.50;1.60;100522.00;;;;5094400;28;20417;-73
2021/01/17 04:19:37;;;;;;;49.80;35.53;;;0.20;74.00;1.60;100533.00;;;;5091592;28;20424;-74
2021/01/17 04:22:05;;;;;;;48.65;36.08;;;0.20;74.00;1.40;100520.00;;;;5077963;28;20464;-74
2021/01/17 04:24:32;;;;;;;50.03;36.22;;;0.20;73.90;1.50;100519.00;;;;5079857;28;20455;-73
2021/01/17 04:27:00;;;;;;;50.95;37.90;;;0.20;74.20;217.30;157313.00;;;;5082667;28;20518;-74
2021/01/17 04:29:27;;;;;;;49.80;36.30;;;0.20;74.40;1.50;100518.00;;;;5060454;28;20515;-73
2021/01/17 04:31:55;;;;;;;51.05;36.78;;;0.20;74.30;1.60;100514.00;;;;5061453;28;20453;-73
2021/01/17 04:34:22;;;;;;;54.07;38.17;;;0.20;74.40;1.70;100510.00;;;;5054939;28;20517;-72
2021/01/17 04:36:51;;;;;;;52.50;38.80;;;0.20;74.50;1.60;100509.00;;;;5055406;28;20479;-73
2021/01/17 04:39:18;;;;;;;52.03;36.92;;;0.30;74.40;1.70;100494.00;;;;5058018;28;20810;-72
2021/01/17 04:41:46;;;;;;;54.65;39.22;;;0.20;74.50;1.60;100503.00;;;;5061663;28;20966;-72
2021/01/17 04:44:21;;;;;;;52.80;38.38;;;0.20;74.40;1.70;100510.00;;;;5058166;28;20454;-73
2021/01/17 04:46:50;;;;;;;51.90;37.85;;;0.30;74.50;217.30;157353.00;;;;5072981;28;20427;-72
2021/01/17 04:49:20;;;;;;;53.85;38.20;;;0.20;74.10;1.50;100500.00;;;;5060894;28;20468;-74
2021/01/17 04:51:53;;;;;;;53.10;38.30;;;0.20;74.10;1.60;100503.00;;;;5076340;28;20419;-73
2021/01/17 04:54:21;;;;;;;53.95;37.70;;;0.20;74.40;1.50;100529.00;;;;5075133;28;20424;-74
2021/01/17 04:57:00;;;;;;;49.38;36.08;;;0.20;74.30;1.50;100502.00;;;;5076692;28;20407;-75
2021/01/17 04:59:36;;;;;;;52.03;36.53;;;0.20;74.20;1.50;66583.00;;;;5063197;28;20408;-75
2021/01/17 05:02:32;;;;;;;50.45;36.92;;;0.20;74.50;1.60;100507.00;;;;5074611;28;20420;-75
2021/01/17 05:05:14;;;;;;;49.83;36.40;;;0.20;74.40;1.60;100507.00;;;;5071156;28;20420;-74
2021/01/17 05:07:51;;;;;;;53.08;37.33;;;0.20;74.00;1.70;100510.00;;;;5071167;28;20506;-74
2021/01/17 05:10:47;;;;;;;53.73;39.00;;;0.20;74.00;1.70;100508.00;;;;5070498;28;20861;-74
2021/01/17 05:13:16;;;;;;;49.47;36.70;;;0.30;74.20;1.60;100506.00;;;;5028429;28;20459;-75
2021/01/17 05:15:46;;;;;;;51.65;37.08;;;0.30;73.80;1.60;100515.00;;;;5076462;28;20851;-75
2021/01/17 05:18:14;;;;;;;50.50;37.20;;;0.20;74.00;1.60;100520.00;;;;5072673;28;20453;-75
2021/01/17 05:20:41;;;;;;;53.75;38.20;;;0.20;73.90;1.70;100507.00;;;;5059162;28;20588;-75
2021/01/17 05:23:11;;;;;;;53.28;38.90;;;0.20;74.30;1.70;100513.00;;;;5059687;28;20431;-73
2021/01/17 05:25:38;;;;;;;54.42;37.85;;;0.30;74.20;1.60;100510.00;;;;5083043;28;20822;-74
2021/01/17 05:28:06;;;;;;;55.25;38.42;;;0.30;73.90;1.50;100523.00;;;;5086275;28;20451;-75
2021/01/17 05:30:35;;;;;;;53.70;38.72;;;0.20;74.10;1.40;100513.00;;;;5066064;28;20457;-74
2021/01/17 05:33:07;;;;;;;57.90;39.88;;;0.20;74.70;1.50;100515.00;;;;5091735;28;20421;-75
2021/01/17 05:35:34;;;;;;;56.03;38.95;;;0.20;75.00;1.60;100512.00;;;;5096450;28;20518;-74
2021/01/17 05:38:02;;;;;;;58.90;40.55;;;0.20;75.50;1.50;100527.00;;;;5093816;28;20429;-73
2021/01/17 05:40:34;;;;;;;56.20;40.20;;;0.20;75.50;1.50;66596.00;;;;5088298;28;20433;-74
2021/01/17 05:43:02;;;;;;;58.15;40.20;;;0.20;75.70;217.30;157323.00;;;;5074431;28;20459;-73
2021/01/17 05:45:30;;;;;;;58.45;41.03;;;0.10;75.50;1.60;100514.00;;;;5093680;28;20396;-74
2021/01/17 05:48:00;;;;;;;61.55;41.28;;;0.10;75.80;1.60;100539.00;;;;5096181;28;20532;-74
2021/01/17 05:50:29;;;;;;;58.28;40.15;;;0.20;75.90;1.40;100510.00;;;;5097474;28;20400;-74
2021/01/17 05:52:58;;;;;;;60.75;42.65;;;0.30;75.50;1.40;100539.00;;;;5097837;28;20396;-73
2021/01/17 05:55:31;;;;;;;57.78;39.72;;;0.10;76.00;1.50;100518.00;;;;5107386;28;20385;-76
2021/01/17 05:58:23;;;;;;;60.50;41.55;;;0.10;76.00;1.40;100546.00;;;;5099182;28;20413;-77
2021/01/17 06:00:53;;;;;;;61.05;42.35;;;0.10;75.90;1.40;100531.00;;;;5100131;28;20399;-74
2021/01/17 06:03:24;;;;;;;62.88;42.60;;;0.10;76.20;1.60;100545.00;;;;5096231;28;20455;-74
2021/01/17 06:05:58;;;;;;;60.53;42.93;;;0.10;76.90;1.80;100525.00;;;;5077604;28;20437;-75
2021/01/17 06:08:29;;;;;;;60.83;41.20;;;0.20;77.60;1.80;100535.00;;;;5077646;28;20410;-75
2021/01/17 06:11:08;;;;;;;62.33;41.30;;;0.30;77.00;1.70;100537.00;;;;5088156;28;20430;-74
2021/01/17 06:13:40;;;;;;;63.30;42.60;;;0.40;76.90;1.70;100540.00;;;;5092197;28;20445;-75
2021/01/17 06:16:29;;;;;;;63.88;43.28;;;0.30;76.80;1.70;100548.00;;;;5085728;28;20426;-75
2021/01/17 06:18:59;;;;;;;65.13;44.10;;;0.30;76.70;1.70;100546.00;;;;5073566;28;20492;-74
2021/01/17 06:21:29;;;;;;;59.47;39.60;;;0.20;76.80;1.50;100549.00;;;;5083492;28;20510;-75
2021/01/17 06:24:00;;;;;;;61.90;39.90;;;0.20;76.70;1.40;100533.00;;;;5069623;28;20423;-75
2021/01/17 06:26:30;;;;;;;63.28;41.45;;;0.20;77.10;1.50;100541.00;;;;5071850;28;20506;-75
2021/01/17 06:29:00;;;;;;;59.83;41.00;;;0.10;77.50;1.60;100530.00;;;;5073148;28;20469;-74
2021/01/17 06:31:30;;;;;;;67.38;42.65;;;0.20;78.10;1.60;100535.00;;;;5067071;28;20413;-74
2021/01/17 06:34:07;;;;;;;67.38;44.55;;;0.20;78.10;1.60;100533.00;;;;5078032;28;20422;-74
2021/01/17 06:36:36;;;;;;;64.78;43.08;;;0.20;78.00;1.70;100531.00;;;;5069399;28;20779;-74
2021/01/17 06:39:05;;;;;;;65.55;43.08;;;0.30;78.10;1.70;100535.00;;;;5073830;28;20733;-74
2021/01/17 06:41:36;;;;;;;61.95;41.28;;;0.30;78.10;1.70;100513.00;;;;5055724;28;20460;-74
2021/01/17 06:44:09;;;;;;;61.83;41.80;;;0.30;78.10;1.80;100515.00;;;;5068895;28;20436;-73
2021/01/17 06:46:43;;;;;;;67.20;42.25;;;0.30;78.20;1.90;100509.00;;;;5088907;28;20425;-74
2021/01/17 06:49:20;;;;;;;60.00;41.33;;;0.30;78.30;1.90;100523.00;;;;5056559;28;20413;-72
2021/01/17 06:51:49;;;;;;;59.55;40.80;;;0.40;78.20;1.90;100517.00;;;;5072156;28;20434;-73
2021/01/17 06:54:18;;;;;;;63.00;41.45;;;0.40;78.00;2.00;100527.00;;;;5081123;28;20700;-74
2021/01/17 06:56:48;;;;;;;58.42;38.78;;;0.40;78.00;1.90;100514.00;;;;5060304;28;20460;-74
2021/01/17 06:59:31;;;;;;;60.03;39.83;;;0.40;77.60;1.80;100522.00;;;;5072894;28;20397;-74
2021/01/17 07:02:40;;;;;;;59.95;39.78;;;0.40;77.50;1.80;100529.00;;;;5067046;28;20496;-74
2021/01/17 07:05:36;;;;;;;62.70;41.67;;;0.30;77.50;1.80;100538.00;;;;5067468;28;21043;-75
2021/01/17 07:08:41;;;;;;;59.58;39.97;;;0.30;78.10;1.90;100554.00;;;;5058224;28;20532;-74
2021/01/17 07:11:22;;;;;;;56.90;39.50;;;0.30;78.10;1.90;100537.00;;;;5080160;28;20981;-75
2021/01/17 07:13:50;;;;;;;56.47;38.17;;;0.40;77.80;1.90;100544.00;;;;5063520;28;20445;-74
2021/01/17 07:16:32;;;;;;;55.17;38.83;;;0.40;77.50;2.00;100556.00;;;;5058440;28;20429;-75
2021/01/17 07:19:07;;;;;;;56.50;38.90;;;0.40;77.50;1.90;100563.00;;;;5057342;28;20417;-74
2021/01/17 07:21:38;;;;;;;51.88;37.78;;;0.40;77.20;1.90;100571.00;;;;5070695;28;20915;-74
2021/01/17 07:24:09;;;;;;;51.57;36.73;;;0.50;76.90;1.90;100570.00;;;;5078287;28;20878;-75
2021/01/17 07:27:11;;;;;;;52.65;36.70;;;0.40;76.30;1.90;100568.00;;;;5087202;28;20442;-75
2021/01/17 07:29:43;;;;;;;47.63;35.40;;;0.40;76.30;1.90;100566.00;;;;5046454;28;20432;-74
2021/01/17 07:32:33;;;;;;;48.65;37.15;;;0.50;76.60;1.90;100580.00;;;;5075161;28;20456;-75
2021/01/17 07:35:12;;;;;;;49.85;36.55;;;0.50;76.20;2.00;100568.00;;;;5091743;28;20432;-74
2021/01/17 07:37:43;;;;;;;49.87;36.57;;;0.50;76.10;2.00;100582.00;;;;5073529;28;20433;-75
2021/01/17 07:40:12;;;;;;;51.93;36.90;;;0.50;75.80;2.00;100568.00;;;;5062735;28;20898;-77
2021/01/17 07:42:39;;;;;;;51.60;37.75;;;0.60;76.00;2.00;100590.00;;;;5071604;28;20432;-73
2021/01/17 07:45:20;;;;;;;51.85;38.50;;;0.60;76.00;1.90;100586.00;;;;5065048;28;20424;-76
2021/01/17 07:47:48;;;;;;;54.70;39.87;;;0.60;75.80;2.00;100591.00;;;;5072419;28;20518;-75
2021/01/17 07:50:16;;;;;;;58.15;41.03;;;0.60;75.70;2.00;100597.00;;;;5085416;28;20422;-75
2021/01/17 07:52:51;;;;;;;57.10;40.20;;;0.60;76.20;2.10;100601.00;;;;5072116;28;20419;-75
2021/01/17 07:55:20;;;;;;;56.70;40.50;;;0.60;76.30;1.90;100608.00;;;;5057139;28;20427;-74
2021/01/17 07:57:51;;;;;;;56.03;39.90;;;0.60;76.20;1.90;100606.00;;;;5057089;28;20415;-74
2021/01/17 08:00:25;;;;;;;54.97;40.45;;;0.60;76.20;1.80;100612.00;;;;5076916;28;20501;-74
2021/01/17 08:02:53;;;;;;;62.10;42.17;;;0.60;76.30;2.00;100598.00;;;;5085155;28;20456;-73
2021/01/17 08:05:52;;;;;;;59.00;41.72;;;0.60;76.70;2.10;100615.00;;;;5062614;28;20924;-75
2021/01/17 08:08:48;;;;;;;57.35;40.25;;;0.70;77.10;2.20;100601.00;;;;5075004;28;20462;-74
2021/01/17 08:11:42;;;;;;;56.83;39.30;;;0.70;76.90;2.10;100620.00;;;;5086274;28;20786;-75
2021/01/17 08:14:22;;;;;;;56.90;41.07;;;0.80;76.80;2.20;66723.00;;;;5054125;28;20812;-75
2021/01/17 08:17:20;;;;;;;54.05;38.92;;;0.80;76.50;2.30;100606.00;;;;5066997;28;20427;-75
2021/01/17 08:19:57;;;;;;;56.30;39.83;;;0.90;76.70;2.40;100605.00;;;;4988311;28;20424;-76
2021/01/17 08:22:44;;;;;;;56.45;39.90;;;0.90;76.30;2.50;100440.00;;;;5046145;28;20428;-74
2021/01/17 08:25:16;;;;;;;53.10;39.17;;;1.00;76.20;2.60;100610.00;;;;5058762;28;20429;-74
2021/01/17 08:27:45;;;;;;;49.65;36.50;;;1.00;76.30;2.60;100637.00;;;;5089668;28;20462;-75
2021/01/17 08:30:17;;;;;;;50.22;37.08;;;1.10;75.80;2.60;100624.00;;;;5062622;28;20429;-74
2021/01/17 08:32:48;;;;;;;52.40;38.10;;;1.10;75.40;2.70;100628.00;;;;5073065;28;20432;-74
2021/01/17 08:35:33;;;;;;;57.47;39.70;;;1.10;75.50;2.80;100629.00;;;;5063467;28;20788;-73
2021/01/17 08:38:19;;;;;;;55.92;40.92;;;1.10;75.10;2.80;100646.00;;;;5052699;28;20460;-74
2021/01/17 08:40:55;;;;;;;55.30;40.10;;;1.10;75.30;2.70;100635.00;;;;5063984;28;20423;-75
2021/01/17 08:43:38;;;;;;;53.80;39.42;;;1.10;74.80;2.60;100635.00;;;;5074047;28;20464;-74
2021/01/17 08:46:06;;;;;;;53.15;38.78;;;1.10;74.80;2.70;100637.00;;;;5078176;28;20518;-74
2021/01/17 08:48:34;;;;;;;46.15;35.70;;;1.10;75.10;2.80;100623.00;;;;5076643;28;20838;-74
2021/01/17 08:51:21;;;;;;;50.05;36.85;;;1.20;74.70;2.80;100624.00;;;;5076885;28;20415;-74
2021/01/17 08:53:49;;;;;;;49.50;36.55;;;1.20;74.20;2.80;100610.00;;;;5076261;28;20419;-74
2021/01/17 08:56:23;;;;;;;46.13;34.45;;;1.20;74.30;2.60;100633.00;;;;5075877;28;20447;-73
2021/01/17 08:58:55;;;;;;;47.20;35.58;;;1.30;73.50;2.60;100626.00;;;;5068974;28;20423;-73
2021/01/17 09:01:23;;;;;;;50.30;36.42;;;1.30;73.90;2.70;100641.00;;;;5071132;28;20425;-73
2021/01/17 09:03:57;;;;;;;46.35;35.17;;;1.30;74.30;2.80;100644.00;;;;5059293;28;20523;-73
2021/01/17 09:06:34;;;;;;;46.20;34.38;;;1.30;74.40;2.90;100647.00;;;;5069169;28;20510;-73
2021/01/17 09:09:15;;;;;;;46.10;34.97;;;1.30;74.20;2.80;100652.00;;;;5076738;28;20451;-75
2021/01/17 09:11:43;;;;;;;44.78;33.75;;;1.30;74.10;2.80;100647.00;;;;5093098;28;20443;-73
2021/01/17 09:14:24;;;;;;;50.97;38.17;;;1.20;74.00;2.90;100663.00;;;;5079297;28;20502;-73
2021/01/17 09:16:55;;;;;;;46.17;34.58;;;1.30;75.30;2.90;100656.00;;;;5077758;28;20444;-75
2021/01/17 09:19:28;;;;;;;52.63;34.60;;;1.30;74.70;2.90;100668.00;;;;5066973;28;20498;-74
2021/01/17 09:21:57;;;;;;;47.63;34.00;;;1.30;74.40;2.90;100675.00;;;;5071788;28;20463;-73
2021/01/17 09:24:29;;;;;;;44.97;33.67;;;1.40;74.50;2.80;100665.00;;;;5092174;28;20456;-77
2021/01/17 09:27:03;;;;;;;43.20;32.70;;;1.40;74.20;2.80;100669.00;;;;5078667;28;20420;-74
2021/01/17 09:29:33;;;;;;;42.00;32.40;;;1.30;73.60;2.90;100689.00;;;;5075907;28;20427;-73
2021/01/17 09:32:05;;;;;;;43.97;32.28;;;1.40;73.80;2.90;100685.00;;;;5059107;28;20412;-75
2021/01/17 09:34:36;;;;;;;41.63;31.33;;;1.40;73.30;2.90;100686.00;;;;5067605;28;20431;-74
2021/01/17 09:37:08;;;;;;;42.00;32.22;;;1.40;73.20;217.30;157793.00;;;;5074303;28;20424;-73
2021/01/17 09:39:41;;;;;;;43.50;33.58;;;1.40;73.20;2.80;66875.00;;;;5086059;28;20910;-74
2021/01/17 09:42:11;;;;;;;43.08;33.45;;;1.40;73.60;2.90;66891.00;;;;5077859;28;20431;-74
2021/01/17 09:44:40;;;;;;;44.40;33.45;;;1.40;73.60;52.70;157918.00;;;;5094090;28;20518;-74
2021/01/17 09:47:16;;;;;;;43.63;32.20;;;1.40;73.80;2.80;66883.00;;;;5072463;28;20417;-74
2021/01/17 09:49:44;;;;;;;45.72;33.33;;;1.40;73.60;2.90;66881.00;;;;5067372;28;20463;-74
2021/01/17 09:52:17;;;;;;;42.83;31.65;;;1.40;73.90;2.90;66898.00;;;;5054680;28;20421;-75
2021/01/17 09:54:46;;;;;;;45.92;33.38;;;1.40;73.60;217.30;157892.00;;;;5070457;28;20451;-73
2021/01/17 09:57:19;;;;;;;46.80;34.23;;;1.50;73.30;217.30;157979.00;;;;5065682;28;20504;-74
2021/01/17 09:59:48;;;;;;;46.33;34.53;;;1.50;73.70;3.10;66949.00;;;;5055855;28;20425;-74
2021/01/17 10:02:18;;;;;;;46.53;33.88;;;1.60;73.90;3.20;100713.00;;;;5066444;28;20416;-74
2021/01/17 10:04:46;;;;;;;46.78;33.95;;;1.60;74.00;3.10;66915.00;;;;5073237;28;20432;-74
2021/01/17 10:07:16;;;;;;;48.97;34.22;;;1.60;73.50;3.00;100708.00;;;;5071041;28;20409;-74
2021/01/17 10:09:45;;;;;;;44.15;32.88;;;1.60;73.70;3.10;100716.00;;;;5056537;28;20410;-73
2021/01/17 10:12:13;;;;;;;45.28;34.17;;;1.60;73.90;217.30;158023.00;;;;5085766;28;20514;-73
2021/01/17 10:14:42;;;;;;;46.38;33.83;;;1.60;72.90;3.30;100708.00;;;;5076979;28;20415;-75
2021/01/17 10:17:09;;;;;;;47.28;33.78;;;1.70;73.20;3.40;100722.00;;;;5072295;28;20752;-73
2021/01/17 10:19:39;;;;;;;47.33;35.42;;;1.70;73.20;3.50;100727.00;;;;5076903;28;20419;-73
2021/01/17 10:22:12;;;;;;;46.70;34.40;;;1.80;73.30;3.60;100722.00;;;;5077824;28;20513;-73
2021/01/17 10:24:40;;;;;;;44.17;33.40;;;1.90;73.10;3.60;100720.00;;;;5086642;28;20430;-73
2021/01/17 10:27:11;;;;;;;44.38;34.78;;;1.80;72.10;3.50;100717.00;;;;5075563;28;20539;-74
2021/01/17 10:29:41;;;;;;;50.95;36.85;;;1.80;72.80;3.50;67038.00;;;;5075905;28;20487;-74
2021/01/17 10:32:11;;;;;;;44.13;32.78;;;1.90;72.80;3.80;67080.00;;;;5063209;28;20420;-74
2021/01/17 10:34:42;;;;;;;46.15;34.63;;;2.00;72.10;3.90;67129.00;;;;5074823;28;20419;-74
2021/01/17 10:37:12;;;;;;;49.40;34.85;;;2.10;72.20;4.00;100720.00;;;;5070633;28;20822;-73
2021/01/17 10:39:57;;;;;;;44.42;33.85;;;2.20;71.70;3.90;100726.00;;;;5057551;28;20457;-74
2021/01/17 10:42:31;;;;;;;45.33;33.10;;;2.20;70.60;3.80;100718.00;;;;5077134;28;20591;-74
2021/01/17 10:45:05;;;;;;;44.27;34.40;;;2.10;70.50;3.60;100709.00;;;;5092650;28;20474;-73
2021/01/17 10:47:43;;;;;;;44.83;32.90;;;2.10;70.30;3.60;100712.00;;;;5083279;28;20410;-73
2021/01/17 10:50:14;;;;;;;47.97;34.80;;;2.00;70.40;3.80;100722.00;;;;5094686;28;20411;-73
2021/01/17 10:52:49;;;;;;;43.97;33.53;;;2.00;71.20;3.80;100719.00;;;;5090950;28;20422;-73
2021/01/17 10:55:19;;;;;;;44.40;34.13;;;2.10;70.80;3.80;100717.00;;;;5071316;28;20425;-73
2021/01/17 10:57:52;;;;;;;46.47;34.75;;;2.10;70.40;3.90;100717.00;;;;5070223;28;20427;-74
2021/01/17 11:00:20;;;;;;;46.73;34.53;;;2.10;70.80;3.70;100730.00;;;;5068260;28;20556;-75
2021/01/17 11:03:01;;;;;;;46.90;35.65;;;2.10;69.80;3.80;100721.00;;;;5067860;28;20432;-74
2021/01/17 11:05:29;;;;;;;45.75;34.38;;;2.20;70.70;3.80;100734.00;;;;5073518;28;20478;-75
2021/01/17 11:07:57;;;;;;;44.92;33.13;;;2.10;70.20;3.80;100720.00;;;;5074816;28;20461;-74
2021/01/17 11:10:26;;;;;;;46.30;34.47;;;2.00;70.70;3.90;100731.00;;;;5076413;28;20453;-74